Time,TemperatureF,DewpointF,PressureIn,WindDirection,WindDirectionDegrees,WindSpeedMPH,WindSpeedGustMPH,Humidity,HourlyPrecipIn,Conditions,Clouds,dailyrainin,SoftwareType,DateUTC
2013-01-15 00:01:00,15.8,13.6,30.41,North,0,0.0,0.0,92,0.00,,,0.00,WUHU21636XXSP,2013-01-15 06:01:00,
2013-01-15 00:06:00,15.6,13.3,30.41,North,0,0.0,0.0,91,0.00,,,0.00,WUHU21636XXSP,2013-01-15 06:06:00,
2013-01-15 00:11:00,15.6,13.3,30.41,North,0,0.0,0.0,91,0.00,,,0.00,WUHU21636XXSP,2013-01-15 06:11:00,
2013-01-15 00:16:00,15.6,13.3,30.42,North,0,0.0,0.0,91,0.00,,,0.00,WUHU21636XXSP,2013-01-15 06:16:00,
2013-01-15 00:21:00,15.4,13.1,30.41,North,0,0.0,0.0,91,0.00,,,0.00,WUHU21636XXSP,2013-01-15 06:21:00,
2013-01-15 00:26:00,15.1,12.7,30.41,North,0,0.0,0.0,91,0.00,,,0.00,WUHU21636XXSP,2013-01-15 06:26:00,
2013-01-15 00:31:00,15.1,12.7,30.41,North,0,0.0,0.0,91,0.00,,,0.00,WUHU21636XXSP,2013-01-15 06:31:00,
2013-01-15 00:36:00,15.4,13.3,30.42,North,0,0.0,0.0,92,0.00,,,0.00,WUHU21636XXSP,2013-01-15 06:36:00,
2013-01-15 00:41:00,15.1,12.7,30.41,North,0,0.0,0.0,91,0.00,,,0.00,WUHU21636XXSP,2013-01-15 06:41:00,
2013-01-15 00:46:00,15.4,13.1,30.41,North,0,0.0,0.0,92,0.00,,,0.00,WUHU21636XXSP,2013-01-15 06:46:00,
2013-01-15 00:51:00,15.1,12.7,30.41,North,0,0.0,0.0,91,0.00,,,0.00,WUHU21636XXSP,2013-01-15 06:51:00,
2013-01-15 00:56:00,14.7,12.4,30.41,North,0,0.0,0.0,91,0.00,,,0.00,WUHU21636XXSP,2013-01-15 06:56:00,
2013-01-15 01:01:00,14.4,12.2,30.41,North,0,0.0,0.0,91,0.00,,,0.00,WUHU21636XXSP,2013-01-15 07:01:00,
2013-01-15 01:06:00,14.5,12.4,30.42,North,0,0.0,0.0,92,0.00,,,0.00,WUHU21636XXSP,2013-01-15 07:06:00,
2013-01-15 01:11:00,14.7,12.4,30.41,North,0,0.0,0.0,91,0.00,,,0.00,WUHU21636XXSP,2013-01-15 07:11:00,
2013-01-15 01:16:00,14.7,12.4,30.41,North,0,0.0,0.0,91,0.00,,,0.00,WUHU21636XXSP,2013-01-15 07:16:00,
2013-01-15 01:21:00,14.5,12.4,30.42,North,0,0.0,0.0,91,0.00,,,0.00,WUHU21636XXSP,2013-01-15 07:21:00,
2013-01-15 01:26:00,14.5,12.6,30.41,North,0,0.0,0.0,92,0.00,,,0.00,WUHU21636XXSP,2013-01-15 07:26:00,
2013-01-15 01:31:00,14.5,12.6,30.41,North,0,0.0,0.0,92,0.00,,,0.00,WUHU21636XXSP,2013-01-15 07:31:00,
2013-01-15 01:36:00,14.0,11.8,30.41,North,0,0.0,0.0,91,0.00,,,0.00,WUHU21636XXSP,2013-01-15 07:36:00,
2013-01-15 01:41:00,13.6,11.5,30.41,North,0,0.0,0.0,91,0.00,,,0.00,WUHU21636XXSP,2013-01-15 07:41:00,
2013-01-15 01:46:00,13.6,11.5,30.41,North,0,0.0,0.0,91,0.00,,,0.00,WUHU21636XXSP,2013-01-15 07:46:00,
2013-01-15 01:51:00,14.0,11.8,30.41,North,0,0.0,0.0,91,0.00,,,0.00,WUHU21636XXSP,2013-01-15 07:51:00,
2013-01-15 01:56:00,14.2,12.0,30.41,North,0,0.0,0.0,91,0.00,,,0.00,WUHU21636XXSP,2013-01-15 07:56:00,
2013-01-15 02:01:00,14.0,11.8,30.41,North,0,0.0,0.0,91,0.00,,,0.00,WUHU21636XXSP,2013-01-15 08:01:00,
2013-01-15 02:06:00,13.6,11.5,30.41,North,0,0.0,0.0,91,0.00,,,0.00,WUHU21636XXSP,2013-01-15 08:06:00,
2013-01-15 02:11:00,13.5,11.3,30.41,North,0,0.0,0.0,91,0.00,,,0.00,WUHU21636XXSP,2013-01-15 08:11:00,
2013-01-15 02:16:00,13.6,11.5,30.42,North,0,0.0,0.0,91,0.00,,,0.00,WUHU21636XXSP,2013-01-15 08:16:00,
2013-01-15 02:21:00,13.6,11.5,30.42,North,0,0.0,0.0,91,0.00,,,0.00,WUHU21636XXSP,2013-01-15 08:21:00,
2013-01-15 02:26:00,13.6,11.5,30.42,North,0,0.0,0.0,91,0.00,,,0.00,WUHU21636XXSP,2013-01-15 08:26:00,
2013-01-15 02:31:00,13.6,11.5,30.42,North,0,0.0,0.0,91,0.00,,,0.00,WUHU21636XXSP,2013-01-15 08:31:00,
2013-01-15 02:36:00,13.6,11.5,30.42,North,0,0.0,0.0,91,0.00,,,0.00,WUHU21636XXSP,2013-01-15 08:36:00,
2013-01-15 02:41:00,13.1,10.9,30.42,North,0,0.0,0.0,91,0.00,,,0.00,WUHU21636XXSP,2013-01-15 08:41:00,
2013-01-15 02:46:00,13.3,11.1,30.42,North,0,0.0,0.0,91,0.00,,,0.00,WUHU21636XXSP,2013-01-15 08:46:00,
2013-01-15 02:51:00,13.5,11.3,30.42,North,0,0.0,0.0,91,0.00,,,0.00,WUHU21636XXSP,2013-01-15 08:51:00,
2013-01-15 02:56:00,13.6,11.5,30.41,North,0,0.0,0.0,91,0.00,,,0.00,WUHU21636XXSP,2013-01-15 08:56:00,
2013-01-15 03:01:00,13.5,11.3,30.41,North,0,0.0,0.0,91,0.00,,,0.00,WUHU21636XXSP,2013-01-15 09:01:00,
2013-01-15 03:06:00,13.5,11.3,30.41,North,0,0.0,0.0,91,0.00,,,0.00,WUHU21636XXSP,2013-01-15 09:06:00,
2013-01-15 03:11:00,13.5,11.3,30.41,North,0,0.0,0.0,91,0.00,,,0.00,WUHU21636XXSP,2013-01-15 09:11:00,
2013-01-15 03:16:00,12.9,10.8,30.41,North,0,0.0,0.0,91,0.00,,,0.00,WUHU21636XXSP,2013-01-15 09:16:00,
2013-01-15 03:21:00,12.7,10.6,30.40,North,0,0.0,0.0,91,0.00,,,0.00,WUHU21636XXSP,2013-01-15 09:21:00,
2013-01-15 03:26:00,13.3,11.1,30.40,North,0,0.0,0.0,91,0.00,,,0.00,WUHU21636XXSP,2013-01-15 09:26:00,
2013-01-15 03:31:00,13.6,11.5,30.40,North,0,0.0,0.0,91,0.00,,,0.00,WUHU21636XXSP,2013-01-15 09:31:00,
2013-01-15 03:36:00,13.6,11.5,30.39,North,0,0.0,0.0,91,0.00,,,0.00,WUHU21636XXSP,2013-01-15 09:36:00,
2013-01-15 03:41:00,13.6,11.5,30.39,North,0,0.0,0.0,91,0.00,,,0.00,WUHU21636XXSP,2013-01-15 09:41:00,
2013-01-15 03:46:00,13.3,10.9,30.39,North,0,0.0,0.0,90,0.00,,,0.00,WUHU21636XXSP,2013-01-15 09:46:00,
2013-01-15 03:51:00,12.9,10.6,30.39,North,0,0.0,0.0,90,0.00,,,0.00,WUHU21636XXSP,2013-01-15 09:51:00,
2013-01-15 03:56:00,12.9,10.6,30.39,North,0,0.0,0.0,91,0.00,,,0.00,WUHU21636XXSP,2013-01-15 09:56:00,
2013-01-15 04:01:00,12.9,10.6,30.38,North,0,0.0,0.0,90,0.00,,,0.00,WUHU21636XXSP,2013-01-15 10:01:00,
2013-01-15 04:06:00,13.1,10.9,30.38,North,0,0.0,0.0,91,0.00,,,0.00,WUHU21636XXSP,2013-01-15 10:06:00,
2013-01-15 04:11:00,12.9,10.8,30.39,North,0,0.0,0.0,91,0.00,,,0.00,WUHU21636XXSP,2013-01-15 10:11:00,
2013-01-15 04:16:00,12.6,10.4,30.39,North,0,0.0,0.0,91,0.00,,,0.00,WUHU21636XXSP,2013-01-15 10:16:00,
2013-01-15 04:21:00,12.6,10.4,30.39,North,0,0.0,0.0,91,0.00,,,0.00,WUHU21636XXSP,2013-01-15 10:21:00,
2013-01-15 04:26:00,12.4,10.2,30.39,North,0,0.0,0.0,91,0.00,,,0.00,WUHU21636XXSP,2013-01-15 10:26:00,
2013-01-15 04:31:00,11.8,9.7,30.39,North,0,0.0,0.0,90,0.00,,,0.00,WUHU21636XXSP,2013-01-15 10:31:00,
2013-01-15 04:36:00,11.8,9.7,30.39,North,0,0.0,0.0,91,0.00,,,0.00,WUHU21636XXSP,2013-01-15 10:36:00,
2013-01-15 04:41:00,12.4,10.2,30.39,North,0,0.0,0.0,91,0.00,,,0.00,WUHU21636XXSP,2013-01-15 10:41:00,
2013-01-15 04:46:00,12.7,10.6,30.39,North,0,0.0,0.0,91,0.00,,,0.00,WUHU21636XXSP,2013-01-15 10:46:00,
2013-01-15 04:51:00,12.9,10.8,30.38,North,0,0.0,0.0,91,0.00,,,0.00,WUHU21636XXSP,2013-01-15 10:51:00,
2013-01-15 04:56:00,12.7,10.6,30.38,North,0,0.0,0.0,91,0.00,,,0.00,WUHU21636XXSP,2013-01-15 10:56:00,
2013-01-15 05:01:00,12.9,10.8,30.38,North,0,0.0,0.0,91,0.00,,,0.00,WUHU21636XXSP,2013-01-15 11:01:00,
2013-01-15 05:06:00,12.7,10.6,30.38,North,0,0.0,0.0,91,0.00,,,0.00,WUHU21636XXSP,2013-01-15 11:06:00,
2013-01-15 05:11:00,12.7,10.6,30.38,North,0,0.0,0.0,91,0.00,,,0.00,WUHU21636XXSP,2013-01-15 11:11:00,
2013-01-15 05:16:00,12.6,10.4,30.38,North,0,0.0,0.0,91,0.00,,,0.00,WUHU21636XXSP,2013-01-15 11:16:00,
2013-01-15 05:21:00,12.0,9.7,30.38,North,0,0.0,0.0,90,0.00,,,0.00,WUHU21636XXSP,2013-01-15 11:21:00,
2013-01-15 05:26:00,12.4,10.2,30.38,North,0,0.0,0.0,91,0.00,,,0.00,WUHU21636XXSP,2013-01-15 11:26:00,
2013-01-15 05:31:00,12.4,10.2,30.38,North,0,0.0,0.0,91,0.00,,,0.00,WUHU21636XXSP,2013-01-15 11:31:00,
2013-01-15 05:36:00,12.7,10.6,30.38,North,0,0.0,0.0,91,0.00,,,0.00,WUHU21636XXSP,2013-01-15 11:36:00,
2013-01-15 05:41:00,12.7,10.6,30.37,North,0,0.0,0.0,91,0.00,,,0.00,WUHU21636XXSP,2013-01-15 11:41:00,
2013-01-15 05:46:00,12.6,10.2,30.37,North,0,0.0,0.0,91,0.00,,,0.00,WUHU21636XXSP,2013-01-15 11:46:00,
2013-01-15 05:51:00,12.4,10.0,30.37,North,0,0.0,0.0,90,0.00,,,0.00,WUHU21636XXSP,2013-01-15 11:51:00,
2013-01-15 05:56:00,11.8,9.5,30.37,North,0,0.0,0.0,90,0.00,,,0.00,WUHU21636XXSP,2013-01-15 11:56:00,
2013-01-15 06:01:00,12.4,10.0,30.38,North,0,0.0,0.0,90,0.00,,,0.00,WUHU21636XXSP,2013-01-15 12:01:00,
2013-01-15 06:06:00,12.0,9.7,30.38,North,0,0.0,0.0,91,0.00,,,0.00,WUHU21636XXSP,2013-01-15 12:06:00,
2013-01-15 06:11:00,12.4,10.2,30.38,North,0,0.0,0.0,91,0.00,,,0.00,WUHU21636XXSP,2013-01-15 12:11:00,
2013-01-15 06:16:00,12.6,10.4,30.38,North,0,0.0,0.0,91,0.00,,,0.00,WUHU21636XXSP,2013-01-15 12:16:00,
2013-01-15 06:21:00,12.6,10.4,30.38,North,0,0.0,0.0,91,0.00,,,0.00,WUHU21636XXSP,2013-01-15 12:21:00,
2013-01-15 06:26:00,12.4,10.0,30.38,North,0,0.0,0.0,90,0.00,,,0.00,WUHU21636XXSP,2013-01-15 12:26:00,
2013-01-15 06:31:00,12.0,9.7,30.38,North,0,0.0,0.0,91,0.00,,,0.00,WUHU21636XXSP,2013-01-15 12:31:00,
2013-01-15 06:36:00,12.4,10.2,30.38,North,0,0.0,0.0,91,0.00,,,0.00,WUHU21636XXSP,2013-01-15 12:36:00,
2013-01-15 06:41:00,12.6,10.4,30.37,North,0,0.0,0.0,91,0.00,,,0.00,WUHU21636XXSP,2013-01-15 12:41:00,
2013-01-15 06:46:00,12.9,10.8,30.38,North,0,0.0,0.0,91,0.00,,,0.00,WUHU21636XXSP,2013-01-15 12:46:00,
2013-01-15 06:51:00,13.1,10.9,30.38,North,0,0.0,0.0,91,0.00,,,0.00,WUHU21636XXSP,2013-01-15 12:51:00,
2013-01-15 06:56:00,12.9,10.8,30.39,North,0,0.0,0.0,91,0.00,,,0.00,WUHU21636XXSP,2013-01-15 12:56:00,
2013-01-15 07:01:00,12.4,10.0,30.39,North,0,0.0,0.0,90,0.00,,,0.00,WUHU21636XXSP,2013-01-15 13:01:00,
2013-01-15 07:06:00,12.4,10.2,30.40,North,0,0.0,0.0,91,0.00,,,0.00,WUHU21636XXSP,2013-01-15 13:06:00,
2013-01-15 07:11:00,12.0,9.9,30.39,North,0,0.0,0.0,91,0.00,,,0.00,WUHU21636XXSP,2013-01-15 13:11:00,
2013-01-15 07:16:00,12.4,10.2,30.39,North,0,0.0,0.0,91,0.00,,,0.00,WUHU21636XXSP,2013-01-15 13:16:00,
2013-01-15 07:21:00,12.0,9.9,30.40,North,0,0.0,0.0,90,0.00,,,0.00,WUHU21636XXSP,2013-01-15 13:21:00,
2013-01-15 07:26:00,12.0,9.9,30.40,North,0,0.0,0.0,91,0.00,,,0.00,WUHU21636XXSP,2013-01-15 13:26:00,
2013-01-15 07:31:00,12.7,10.6,30.40,North,0,0.0,0.0,91,0.00,,,0.00,WUHU21636XXSP,2013-01-15 13:31:00,
2013-01-15 07:36:00,12.9,10.8,30.41,North,0,0.0,0.0,91,0.00,,,0.00,WUHU21636XXSP,2013-01-15 13:36:00,
2013-01-15 07:41:00,12.9,10.8,30.40,North,0,0.0,0.0,90,0.00,,,0.00,WUHU21636XXSP,2013-01-15 13:41:00,
2013-01-15 07:46:00,12.9,10.8,30.40,North,0,0.0,0.0,90,0.00,,,0.00,WUHU21636XXSP,2013-01-15 13:46:00,
2013-01-15 07:51:00,13.6,11.5,30.40,North,0,0.0,0.0,91,0.00,,,0.00,WUHU21636XXSP,2013-01-15 13:51:00,
2013-01-15 07:56:00,14.0,11.7,30.41,North,0,0.0,0.0,90,0.00,,,0.00,WUHU21636XXSP,2013-01-15 13:56:00,
2013-01-15 08:01:00,14.9,12.4,30.40,North,0,0.0,0.0,90,0.00,,,0.00,WUHU21636XXSP,2013-01-15 14:01:00,
2013-01-15 08:06:00,16.0,13.5,30.40,North,0,0.0,0.0,90,0.00,,,0.00,WUHU21636XXSP,2013-01-15 14:06:00,
2013-01-15 08:11:00,17.1,14.5,30.41,North,0,0.0,0.0,90,0.00,,,0.00,WUHU21636XXSP,2013-01-15 14:11:00,
2013-01-15 08:16:00,17.8,15.3,30.41,North,0,0.0,0.0,90,0.00,,,0.00,WUHU21636XXSP,2013-01-15 14:16:00,
2013-01-15 08:21:00,18.7,15.8,30.41,North,0,0.0,0.0,89,0.00,,,0.00,WUHU21636XXSP,2013-01-15 14:21:00,
2013-01-15 08:26:00,20.5,17.6,30.41,North,0,0.0,0.0,89,0.00,,,0.00,WUHU21636XXSP,2013-01-15 14:26:00,
2013-01-15 08:31:00,21.9,18.9,30.43,North,0,0.0,0.0,88,0.00,,,0.00,WUHU21636XXSP,2013-01-15 14:31:00,
2013-01-15 08:36:00,23.2,20.1,30.42,North,0,0.0,0.0,88,0.00,,,0.00,WUHU21636XXSP,2013-01-15 14:36:00,
2013-01-15 08:41:00,24.3,20.7,30.43,North,0,0.0,0.0,86,0.00,,,0.00,WUHU21636XXSP,2013-01-15 14:41:00,
2013-01-15 08:46:00,24.4,20.8,30.43,North,0,0.0,0.0,86,0.00,,,0.00,WUHU21636XXSP,2013-01-15 14:46:00,
2013-01-15 08:51:00,24.6,20.7,30.43,North,0,0.0,0.0,85,0.00,,,0.00,WUHU21636XXSP,2013-01-15 14:51:00,
2013-01-15 08:56:00,25.7,21.7,30.42,North,0,0.0,0.0,85,0.00,,,0.00,WUHU21636XXSP,2013-01-15 14:56:00,
2013-01-15 09:01:00,24.6,19.9,30.42,North,0,0.0,0.0,82,0.00,,,0.00,WUHU21636XXSP,2013-01-15 15:01:00,
2013-01-15 09:06:00,25.2,20.3,30.41,North,0,0.0,0.0,82,0.00,,,0.00,WUHU21636XXSP,2013-01-15 15:06:00,
2013-01-15 09:11:00,26.2,20.8,30.40,North,0,0.0,0.0,80,0.00,,,0.00,WUHU21636XXSP,2013-01-15 15:11:00,
2013-01-15 09:16:00,26.2,20.8,30.40,North,0,0.0,0.0,79,0.00,,,0.00,WUHU21636XXSP,2013-01-15 15:16:00,
2013-01-15 09:21:00,27.1,20.7,30.39,North,0,0.0,0.8,77,0.00,,,0.00,WUHU21636XXSP,2013-01-15 15:21:00,
2013-01-15 09:26:00,26.8,20.1,30.38,North,0,4.4,4.4,76,0.00,,,0.00,WUHU21636XXSP,2013-01-15 15:26:00,
2013-01-15 09:31:00,27.1,20.5,30.38,North,0,0.0,4.4,76,0.00,,,0.00,WUHU21636XXSP,2013-01-15 15:31:00,
2013-01-15 09:36:00,27.7,21.2,30.37,North,0,2.9,4.4,77,0.00,,,0.00,WUHU21636XXSP,2013-01-15 15:36:00,
2013-01-15 09:41:00,28.6,21.6,30.38,North,0,0.0,2.9,75,0.00,,,0.00,WUHU21636XXSP,2013-01-15 15:41:00,
2013-01-15 09:46:00,29.8,23.0,30.37,North,0,0.0,2.9,72,0.00,,,0.00,WUHU21636XXSP,2013-01-15 15:46:00,
2013-01-15 09:51:00,31.3,24.3,30.37,North,0,0.0,0.0,75,0.00,,,0.00,WUHU21636XXSP,2013-01-15 15:51:00,
2013-01-15 09:56:00,30.4,21.9,30.38,North,0,0.0,0.0,71,0.00,,,0.00,WUHU21636XXSP,2013-01-15 15:56:00,
2013-01-15 10:01:00,31.3,23.2,30.38,North,0,0.0,0.0,72,0.00,,,0.00,WUHU21636XXSP,2013-01-15 16:01:00,
2013-01-15 10:06:00,32.5,23.7,30.37,North,0,0.0,0.0,70,0.00,,,0.00,WUHU21636XXSP,2013-01-15 16:06:00,
2013-01-15 10:11:00,32.9,23.0,30.37,North,0,1.7,1.7,67,0.00,,,0.00,WUHU21636XXSP,2013-01-15 16:11:00,
2013-01-15 10:16:00,31.1,22.1,30.37,North,0,0.0,1.7,69,0.00,,,0.00,WUHU21636XXSP,2013-01-15 16:16:00,
2013-01-15 10:21:00,30.4,21.4,30.36,North,0,0.0,0.0,69,0.00,,,0.00,WUHU21636XXSP,2013-01-15 16:21:00,
2013-01-15 10:26:00,29.1,20.5,30.36,North,0,0.0,0.0,70,0.00,,,0.00,WUHU21636XXSP,2013-01-15 16:26:00,
2013-01-15 10:31:00,28.2,19.9,30.36,North,0,0.0,0.0,71,0.00,,,0.00,WUHU21636XXSP,2013-01-15 16:31:00,
2013-01-15 10:36:00,28.0,20.5,30.36,North,0,0.0,0.0,73,0.00,,,0.00,WUHU21636XXSP,2013-01-15 16:36:00,
2013-01-15 10:41:00,28.9,21.6,30.36,North,0,0.0,0.0,74,0.00,,,0.00,WUHU21636XXSP,2013-01-15 16:41:00,
2013-01-15 10:46:00,29.5,21.4,30.35,North,0,0.0,2.2,72,0.00,,,0.00,WUHU21636XXSP,2013-01-15 16:46:00,
2013-01-15 10:51:00,30.0,22.3,30.35,North,0,0.0,2.2,72,0.00,,,0.00,WUHU21636XXSP,2013-01-15 16:51:00,
2013-01-15 10:56:00,30.2,21.2,30.35,North,0,0.8,6.7,69,0.00,,,0.00,WUHU21636XXSP,2013-01-15 16:56:00,
2013-01-15 11:01:00,30.4,21.7,30.35,North,0,0.0,6.7,70,0.00,,,0.00,WUHU21636XXSP,2013-01-15 17:01:00,
2013-01-15 11:06:00,30.0,21.6,30.34,North,0,0.0,1.1,71,0.00,,,0.00,WUHU21636XXSP,2013-01-15 17:06:00,
2013-01-15 11:11:00,29.3,21.0,30.34,North,0,0.0,0.0,71,0.00,,,0.00,WUHU21636XXSP,2013-01-15 17:11:00,
2013-01-15 11:16:00,28.9,21.0,30.33,North,0,0.0,0.0,72,0.00,,,0.00,WUHU21636XXSP,2013-01-15 17:16:00,
2013-01-15 11:21:00,29.3,21.6,30.33,North,0,0.0,4.0,72,0.00,,,0.00,WUHU21636XXSP,2013-01-15 17:21:00,
2013-01-15 11:26:00,29.1,21.2,30.33,North,0,0.0,4.0,72,0.00,,,0.00,WUHU21636XXSP,2013-01-15 17:26:00,
2013-01-15 11:31:00,28.9,21.2,30.33,North,0,0.0,0.0,73,0.00,,,0.00,WUHU21636XXSP,2013-01-15 17:31:00,
2013-01-15 11:36:00,28.8,21.4,30.33,North,0,0.0,0.0,74,0.00,,,0.00,WUHU21636XXSP,2013-01-15 17:36:00,
2013-01-15 11:41:00,28.9,21.9,30.33,North,0,0.0,0.0,75,0.00,,,0.00,WUHU21636XXSP,2013-01-15 17:41:00,
2013-01-15 11:46:00,29.1,21.7,30.33,North,0,0.0,0.0,74,0.00,,,0.00,WUHU21636XXSP,2013-01-15 17:46:00,
2013-01-15 11:51:00,28.6,20.3,30.33,North,0,0.0,0.6,71,0.00,,,0.00,WUHU21636XXSP,2013-01-15 17:51:00,
2013-01-15 11:56:00,28.9,21.0,30.32,North,0,0.0,0.6,72,0.00,,,0.00,WUHU21636XXSP,2013-01-15 17:56:00,
2013-01-15 12:01:00,28.9,21.0,30.33,North,0,0.0,0.0,71,0.00,,,0.00,WUHU21636XXSP,2013-01-15 18:01:00,
2013-01-15 12:06:00,29.1,20.5,30.33,North,0,0.0,0.0,70,0.00,,,0.00,WUHU21636XXSP,2013-01-15 18:06:00,
2013-01-15 12:11:00,29.3,21.0,30.32,North,0,0.0,0.0,71,0.00,,,0.00,WUHU21636XXSP,2013-01-15 18:11:00,
2013-01-15 12:16:00,29.5,20.8,30.31,North,0,0.0,0.0,71,0.00,,,0.00,WUHU21636XXSP,2013-01-15 18:16:00,
2013-01-15 12:21:00,29.3,20.3,30.32,North,0,0.2,0.8,69,0.00,,,0.00,WUHU21636XXSP,2013-01-15 18:21:00,
2013-01-15 12:26:00,30.0,21.0,30.31,North,0,0.0,0.8,69,0.00,,,0.00,WUHU21636XXSP,2013-01-15 18:26:00,
2013-01-15 12:31:00,30.4,21.4,30.32,North,0,0.0,0.2,69,0.00,,,0.00,WUHU21636XXSP,2013-01-15 18:31:00,
2013-01-15 12:36:00,30.6,21.6,30.31,North,0,0.0,0.0,69,0.00,,,0.00,WUHU21636XXSP,2013-01-15 18:36:00,
2013-01-15 12:41:00,30.9,21.2,30.30,North,0,0.0,0.0,67,0.00,,,0.00,WUHU21636XXSP,2013-01-15 18:41:00,
2013-01-15 12:46:00,30.7,20.7,30.30,North,0,0.0,0.0,66,0.00,,,0.00,WUHU21636XXSP,2013-01-15 18:46:00,
2013-01-15 12:51:00,30.0,20.7,30.30,North,0,0.0,0.0,68,0.00,,,0.00,WUHU21636XXSP,2013-01-15 18:51:00,
2013-01-15 12:56:00,30.4,21.4,30.30,North,0,0.0,0.0,69,0.00,,,0.00,WUHU21636XXSP,2013-01-15 18:56:00,
2013-01-15 13:01:00,30.7,21.4,30.30,North,0,0.0,0.0,68,0.00,,,0.00,WUHU21636XXSP,2013-01-15 19:01:00,
2013-01-15 13:06:00,30.4,21.0,30.29,North,0,0.0,0.0,68,0.00,,,0.00,WUHU21636XXSP,2013-01-15 19:06:00,
2013-01-15 13:11:00,30.4,21.4,30.29,North,0,0.0,0.0,69,0.00,,,0.00,WUHU21636XXSP,2013-01-15 19:11:00,
2013-01-15 13:16:00,30.7,22.3,30.28,North,0,0.0,0.0,69,0.00,,,0.00,WUHU21636XXSP,2013-01-15 19:16:00,
2013-01-15 13:21:00,30.9,22.3,30.29,North,0,0.0,0.0,69,0.00,,,0.00,WUHU21636XXSP,2013-01-15 19:21:00,
2013-01-15 13:26:00,31.3,22.6,30.30,North,0,0.0,0.0,70,0.00,,,0.00,WUHU21636XXSP,2013-01-15 19:26:00,
2013-01-15 13:31:00,31.3,22.3,30.29,North,0,0.0,0.4,69,0.00,,,0.00,WUHU21636XXSP,2013-01-15 19:31:00,
2013-01-15 13:36:00,31.8,22.8,30.28,North,0,0.0,0.4,69,0.00,,,0.00,WUHU21636XXSP,2013-01-15 19:36:00,
2013-01-15 13:41:00,33.1,23.5,30.28,North,0,0.0,0.0,68,0.00,,,0.00,WUHU21636XXSP,2013-01-15 19:41:00,
2013-01-15 13:46:00,32.2,22.6,30.28,North,0,0.0,0.0,68,0.00,,,0.00,WUHU21636XXSP,2013-01-15 19:46:00,
2013-01-15 13:51:00,33.1,23.9,30.29,North,0,0.0,0.0,69,0.00,,,0.00,WUHU21636XXSP,2013-01-15 19:51:00,
2013-01-15 13:56:00,32.4,22.1,30.29,North,0,0.0,0.0,66,0.00,,,0.00,WUHU21636XXSP,2013-01-15 19:56:00,
2013-01-15 14:01:00,31.1,21.7,30.28,North,0,2.2,2.2,68,0.00,,,0.00,WUHU21636XXSP,2013-01-15 20:01:00,
2013-01-15 14:06:00,31.3,22.8,30.28,North,0,0.0,2.2,71,0.00,,,0.00,WUHU21636XXSP,2013-01-15 20:06:00,
2013-01-15 14:11:00,31.6,23.0,30.29,North,0,0.0,2.2,70,0.00,,,0.00,WUHU21636XXSP,2013-01-15 20:11:00,
2013-01-15 14:16:00,32.2,23.0,30.29,North,0,0.0,1.3,69,0.00,,,0.00,WUHU21636XXSP,2013-01-15 20:16:00,
2013-01-15 14:21:00,31.6,22.6,30.29,North,0,0.0,0.0,69,0.00,,,0.00,WUHU21636XXSP,2013-01-15 20:21:00,
2013-01-15 14:26:00,31.5,22.1,30.29,North,0,0.0,0.0,69,0.00,,,0.00,WUHU21636XXSP,2013-01-15 20:26:00,
2013-01-15 14:31:00,31.6,23.2,30.29,North,0,0.2,0.2,71,0.00,,,0.00,WUHU21636XXSP,2013-01-15 20:31:00,
2013-01-15 14:36:00,31.3,22.8,30.29,North,0,0.0,0.2,71,0.00,,,0.00,WUHU21636XXSP,2013-01-15 20:36:00,
2013-01-15 14:41:00,31.3,22.6,30.29,North,0,0.0,0.2,70,0.00,,,0.00,WUHU21636XXSP,2013-01-15 20:41:00,
2013-01-15 14:46:00,31.3,22.3,30.29,North,0,0.0,0.8,69,0.00,,,0.00,WUHU21636XXSP,2013-01-15 20:46:00,
2013-01-15 14:51:00,31.5,22.8,30.29,North,0,0.0,0.8,70,0.00,,,0.00,WUHU21636XXSP,2013-01-15 20:51:00,
2013-01-15 14:56:00,31.3,22.8,30.29,North,0,0.0,0.0,71,0.00,,,0.00,WUHU21636XXSP,2013-01-15 20:56:00,
2013-01-15 15:01:00,31.6,23.2,30.29,North,0,0.0,0.0,71,0.00,,,0.00,WUHU21636XXSP,2013-01-15 21:01:00,
2013-01-15 15:06:00,31.6,23.2,30.28,North,0,0.0,0.0,71,0.00,,,0.00,WUHU21636XXSP,2013-01-15 21:06:00,
2013-01-15 15:11:00,30.9,22.5,30.28,North,0,0.0,0.0,71,0.00,,,0.00,WUHU21636XXSP,2013-01-15 21:11:00,
2013-01-15 15:16:00,30.6,22.5,30.29,North,0,0.0,0.4,73,0.00,,,0.00,WUHU21636XXSP,2013-01-15 21:16:00,
2013-01-15 15:21:00,30.6,22.5,30.29,North,0,0.0,0.4,73,0.00,,,0.00,WUHU21636XXSP,2013-01-15 21:21:00,
2013-01-15 15:26:00,30.4,22.6,30.28,North,0,0.0,0.0,73,0.00,,,0.00,WUHU21636XXSP,2013-01-15 21:26:00,
2013-01-15 15:31:00,30.4,22.6,30.28,North,0,0.0,0.0,73,0.00,,,0.00,WUHU21636XXSP,2013-01-15 21:31:00,
2013-01-15 15:36:00,30.0,22.3,30.28,North,0,0.0,0.0,73,0.00,,,0.00,WUHU21636XXSP,2013-01-15 21:36:00,
2013-01-15 15:41:00,29.8,22.5,30.28,North,0,0.0,0.0,74,0.00,,,0.00,WUHU21636XXSP,2013-01-15 21:41:00,
2013-01-15 15:46:00,30.0,23.0,30.29,North,0,0.0,0.0,75,0.00,,,0.00,WUHU21636XXSP,2013-01-15 21:46:00,
2013-01-15 15:51:00,30.0,23.0,30.28,North,0,0.0,0.0,74,0.00,,,0.00,WUHU21636XXSP,2013-01-15 21:51:00,
2013-01-15 15:56:00,29.8,22.5,30.28,North,0,0.4,0.4,74,0.00,,,0.00,WUHU21636XXSP,2013-01-15 21:56:00,
2013-01-15 16:01:00,29.3,21.9,30.28,North,0,0.0,0.4,74,0.00,,,0.00,WUHU21636XXSP,2013-01-15 22:01:00,
2013-01-15 16:06:00,29.3,21.9,30.27,North,0,0.0,0.4,75,0.00,,,0.00,WUHU21636XXSP,2013-01-15 22:06:00,
2013-01-15 16:11:00,28.9,22.3,30.28,North,0,0.0,0.0,76,0.00,,,0.00,WUHU21636XXSP,2013-01-15 22:11:00,
2013-01-15 16:16:00,28.8,22.3,30.27,North,0,0.0,0.0,77,0.00,,,0.00,WUHU21636XXSP,2013-01-15 22:16:00,
2013-01-15 16:21:00,28.8,22.3,30.27,North,0,0.0,0.0,77,0.00,,,0.00,WUHU21636XXSP,2013-01-15 22:21:00,
2013-01-15 16:26:00,28.9,22.5,30.26,North,0,0.0,0.0,77,0.00,,,0.00,WUHU21636XXSP,2013-01-15 22:26:00,
2013-01-15 16:31:00,28.9,22.5,30.26,North,0,0.0,0.0,78,0.00,,,0.00,WUHU21636XXSP,2013-01-15 22:31:00,
2013-01-15 16:36:00,28.9,22.5,30.26,North,0,0.0,0.0,78,0.00,,,0.00,WUHU21636XXSP,2013-01-15 22:36:00,
2013-01-15 16:41:00,28.9,22.5,30.25,North,0,0.0,0.0,78,0.00,,,0.00,WUHU21636XXSP,2013-01-15 22:41:00,
2013-01-15 16:46:00,28.9,22.5,30.25,North,0,0.0,0.0,78,0.00,,,0.00,WUHU21636XXSP,2013-01-15 22:46:00,
2013-01-15 16:51:00,28.8,23.0,30.25,North,0,0.0,0.0,79,0.00,,,0.00,WUHU21636XXSP,2013-01-15 22:51:00,
2013-01-15 16:56:00,28.6,22.8,30.25,North,0,0.0,0.0,79,0.00,,,0.00,WUHU21636XXSP,2013-01-15 22:56:00,
2013-01-15 17:01:00,28.4,23.0,30.25,North,0,0.0,0.0,80,0.00,,,0.00,WUHU21636XXSP,2013-01-15 23:01:00,
2013-01-15 17:06:00,28.2,22.8,30.25,North,0,0.0,3.5,80,0.00,,,0.00,WUHU21636XXSP,2013-01-15 23:06:00,
2013-01-15 17:11:00,28.0,22.6,30.24,North,0,0.0,3.5,80,0.00,,,0.00,WUHU21636XXSP,2013-01-15 23:11:00,
2013-01-15 17:16:00,28.0,22.6,30.24,North,0,0.0,0.0,80,0.00,,,0.00,WUHU21636XXSP,2013-01-15 23:16:00,
2013-01-15 17:21:00,27.7,22.3,30.24,North,0,0.0,0.0,80,0.00,,,0.00,WUHU21636XXSP,2013-01-15 23:21:00,
2013-01-15 17:26:00,27.7,22.3,30.23,North,0,0.0,0.0,80,0.00,,,0.00,WUHU21636XXSP,2013-01-15 23:26:00,
2013-01-15 17:31:00,27.5,22.1,30.23,North,0,0.0,0.0,80,0.00,,,0.00,WUHU21636XXSP,2013-01-15 23:31:00,
2013-01-15 17:36:00,27.3,22.1,30.23,North,0,0.0,0.0,81,0.00,,,0.00,WUHU21636XXSP,2013-01-15 23:36:00,
2013-01-15 17:41:00,27.3,22.1,30.23,North,0,0.0,0.0,81,0.00,,,0.00,WUHU21636XXSP,2013-01-15 23:41:00,
2013-01-15 17:46:00,27.3,22.1,30.22,North,0,0.0,0.0,81,0.00,,,0.00,WUHU21636XXSP,2013-01-15 23:46:00,
2013-01-15 17:51:00,27.1,21.9,30.22,North,0,0.0,0.0,81,0.00,,,0.00,WUHU21636XXSP,2013-01-15 23:51:00,
2013-01-15 17:56:00,26.8,21.9,30.22,North,0,0.0,0.0,82,0.00,,,0.00,WUHU21636XXSP,2013-01-15 23:56:00,
2013-01-15 18:01:00,26.8,21.9,30.22,North,0,0.0,0.0,82,0.00,,,0.00,WUHU21636XXSP,2013-01-16 00:01:00,
2013-01-15 18:06:00,26.8,21.9,30.22,North,0,0.0,0.0,82,0.00,,,0.00,WUHU21636XXSP,2013-01-16 00:06:00,
2013-01-15 18:11:00,26.4,21.6,30.22,North,0,0.0,0.0,82,0.00,,,0.00,WUHU21636XXSP,2013-01-16 00:11:00,
2013-01-15 18:16:00,26.2,21.4,30.22,North,0,0.0,0.0,82,0.00,,,0.00,WUHU21636XXSP,2013-01-16 00:16:00,
2013-01-15 18:21:00,26.2,21.4,30.22,North,0,0.0,0.0,83,0.00,,,0.00,WUHU21636XXSP,2013-01-16 00:21:00,
2013-01-15 18:26:00,26.2,21.4,30.22,North,0,0.0,0.0,83,0.00,,,0.00,WUHU21636XXSP,2013-01-16 00:26:00,
2013-01-15 18:31:00,26.2,21.4,30.23,North,0,0.0,0.0,83,0.00,,,0.00,WUHU21636XXSP,2013-01-16 00:31:00,
2013-01-15 18:36:00,26.4,22.1,30.22,North,0,0.0,0.0,84,0.00,,,0.00,WUHU21636XXSP,2013-01-16 00:36:00,
2013-01-15 18:41:00,26.8,22.5,30.22,North,0,0.0,0.0,84,0.00,,,0.00,WUHU21636XXSP,2013-01-16 00:41:00,
2013-01-15 18:46:00,27.0,22.6,30.22,North,0,0.0,0.0,84,0.00,,,0.00,WUHU21636XXSP,2013-01-16 00:46:00,
2013-01-15 18:51:00,27.0,22.6,30.22,North,0,0.0,0.0,84,0.00,,,0.00,WUHU21636XXSP,2013-01-16 00:51:00,
2013-01-15 18:56:00,27.0,22.6,30.22,North,0,0.0,0.0,84,0.00,,,0.00,WUHU21636XXSP,2013-01-16 00:56:00,
2013-01-15 19:01:00,27.0,22.6,30.22,North,0,0.0,0.0,84,0.00,,,0.00,WUHU21636XXSP,2013-01-16 01:01:00,
2013-01-15 19:06:00,26.8,22.5,30.22,North,0,0.0,0.0,84,0.00,,,0.00,WUHU21636XXSP,2013-01-16 01:06:00,
2013-01-15 19:11:00,26.8,22.5,30.22,North,0,0.0,0.0,84,0.00,,,0.00,WUHU21636XXSP,2013-01-16 01:11:00,
2013-01-15 19:16:00,26.6,22.6,30.22,North,0,0.0,0.0,85,0.00,,,0.00,WUHU21636XXSP,2013-01-16 01:16:00,
2013-01-15 19:21:00,26.8,22.8,30.21,North,0,0.0,0.0,85,0.00,,,0.00,WUHU21636XXSP,2013-01-16 01:21:00,
2013-01-15 19:26:00,26.4,22.5,30.21,North,0,0.0,0.0,85,0.00,,,0.00,WUHU21636XXSP,2013-01-16 01:26:00,
2013-01-15 19:31:00,26.4,22.5,30.21,North,0,0.0,0.0,85,0.00,,,0.00,WUHU21636XXSP,2013-01-16 01:31:00,
2013-01-15 19:36:00,26.4,22.5,30.21,North,0,0.0,0.0,85,0.00,,,0.00,WUHU21636XXSP,2013-01-16 01:36:00,
2013-01-15 19:41:00,26.2,22.3,30.21,North,0,0.0,0.0,85,0.00,,,0.00,WUHU21636XXSP,2013-01-16 01:41:00,
2013-01-15 19:46:00,26.4,22.5,30.21,North,0,0.0,0.0,85,0.00,,,0.00,WUHU21636XXSP,2013-01-16 01:46:00,
2013-01-15 19:51:00,26.4,22.5,30.21,North,0,0.0,0.0,85,0.00,,,0.00,WUHU21636XXSP,2013-01-16 01:51:00,
2013-01-15 19:56:00,26.4,22.5,30.20,North,0,0.0,0.0,85,0.00,,,0.00,WUHU21636XXSP,2013-01-16 01:56:00,
2013-01-15 20:01:00,26.2,22.3,30.19,North,0,0.0,0.0,85,0.00,,,0.00,WUHU21636XXSP,2013-01-16 02:01:00,
2013-01-15 20:06:00,26.2,22.3,30.19,North,0,0.0,0.0,85,0.00,,,0.00,WUHU21636XXSP,2013-01-16 02:06:00,
2013-01-15 20:11:00,26.2,22.3,30.19,North,0,0.0,0.0,85,0.00,,,0.00,WUHU21636XXSP,2013-01-16 02:11:00,
2013-01-15 20:16:00,26.2,22.3,30.19,North,0,0.0,0.0,85,0.00,,,0.00,WUHU21636XXSP,2013-01-16 02:16:00,
2013-01-15 20:21:00,25.9,22.1,30.19,North,0,0.0,0.0,86,0.00,,,0.00,WUHU21636XXSP,2013-01-16 02:21:00,
2013-01-15 20:26:00,25.9,22.1,30.19,North,0,0.0,0.0,86,0.00,,,0.00,WUHU21636XXSP,2013-01-16 02:26:00,
2013-01-15 20:31:00,25.7,21.9,30.19,North,0,0.0,0.0,86,0.00,,,0.00,WUHU21636XXSP,2013-01-16 02:31:00,
2013-01-15 20:36:00,25.5,21.7,30.19,North,0,0.0,0.0,86,0.00,,,0.00,WUHU21636XXSP,2013-01-16 02:36:00,
2013-01-15 20:41:00,25.5,21.7,30.19,North,0,0.0,0.0,86,0.00,,,0.00,WUHU21636XXSP,2013-01-16 02:41:00,
2013-01-15 20:46:00,25.3,21.6,30.19,North,0,0.0,0.0,86,0.00,,,0.00,WUHU21636XXSP,2013-01-16 02:46:00,
2013-01-15 20:51:00,25.7,21.9,30.19,North,0,0.0,0.0,86,0.00,,,0.00,WUHU21636XXSP,2013-01-16 02:51:00,
2013-01-15 20:56:00,25.5,21.7,30.19,North,0,0.0,0.0,86,0.00,,,0.00,WUHU21636XXSP,2013-01-16 02:56:00,
2013-01-15 21:01:00,25.9,22.1,30.19,North,0,0.0,0.0,86,0.00,,,0.00,WUHU21636XXSP,2013-01-16 03:01:00,
2013-01-15 21:06:00,26.1,22.3,30.19,North,0,0.0,0.0,86,0.00,,,0.00,WUHU21636XXSP,2013-01-16 03:06:00,
2013-01-15 21:11:00,26.2,22.5,30.19,North,0,0.0,0.0,86,0.00,,,0.00,WUHU21636XXSP,2013-01-16 03:11:00,
2013-01-15 21:16:00,26.4,22.6,30.19,North,0,0.0,0.0,86,0.00,,,0.00,WUHU21636XXSP,2013-01-16 03:16:00,
2013-01-15 21:21:00,26.4,22.6,30.19,North,0,0.0,0.0,86,0.00,,,0.00,WUHU21636XXSP,2013-01-16 03:21:00,
2013-01-15 21:26:00,26.4,22.6,30.19,North,0,0.0,0.0,86,0.00,,,0.00,WUHU21636XXSP,2013-01-16 03:26:00,
2013-01-15 21:31:00,26.4,22.6,30.19,North,0,0.0,0.0,86,0.00,,,0.00,WUHU21636XXSP,2013-01-16 03:31:00,
2013-01-15 21:36:00,26.4,22.6,30.18,North,0,0.0,0.0,86,0.00,,,0.00,WUHU21636XXSP,2013-01-16 03:36:00,
2013-01-15 21:41:00,26.4,22.6,30.18,North,0,0.0,0.0,86,0.00,,,0.00,WUHU21636XXSP,2013-01-16 03:41:00,
2013-01-15 21:46:00,26.4,22.6,30.17,North,0,0.0,0.0,86,0.00,,,0.00,WUHU21636XXSP,2013-01-16 03:46:00,
2013-01-15 21:51:00,26.4,22.6,30.17,North,0,0.0,0.0,86,0.00,,,0.00,WUHU21636XXSP,2013-01-16 03:51:00,
2013-01-15 21:56:00,26.4,22.6,30.17,North,0,0.0,0.0,86,0.00,,,0.00,WUHU21636XXSP,2013-01-16 03:56:00,
2013-01-15 22:01:00,26.4,22.6,30.16,North,0,0.0,0.0,86,0.00,,,0.00,WUHU21636XXSP,2013-01-16 04:01:00,
2013-01-15 22:06:00,26.8,23.0,30.16,North,0,0.0,0.0,86,0.00,,,0.00,WUHU21636XXSP,2013-01-16 04:06:00,
2013-01-15 22:11:00,26.8,23.0,30.16,North,0,0.0,0.0,86,0.00,,,0.00,WUHU21636XXSP,2013-01-16 04:11:00,
2013-01-15 22:16:00,26.6,22.8,30.16,North,0,0.0,0.0,86,0.00,,,0.00,WUHU21636XXSP,2013-01-16 04:16:00,
2013-01-15 22:21:00,26.4,22.6,30.15,North,0,0.0,0.0,86,0.00,,,0.00,WUHU21636XXSP,2013-01-16 04:21:00,
2013-01-15 22:26:00,26.4,22.6,30.15,North,0,0.0,0.0,86,0.00,,,0.00,WUHU21636XXSP,2013-01-16 04:26:00,
2013-01-15 22:31:00,26.4,22.6,30.15,North,0,0.0,0.0,86,0.00,,,0.00,WUHU21636XXSP,2013-01-16 04:31:00,
2013-01-15 22:36:00,26.2,22.5,30.15,North,0,0.0,0.0,87,0.00,,,0.00,WUHU21636XXSP,2013-01-16 04:36:00,
2013-01-15 22:41:00,26.1,22.6,30.15,North,0,0.0,0.0,87,0.00,,,0.00,WUHU21636XXSP,2013-01-16 04:41:00,
2013-01-15 22:46:00,25.9,22.5,30.15,North,0,0.0,0.0,87,0.00,,,0.00,WUHU21636XXSP,2013-01-16 04:46:00,
2013-01-15 22:51:00,25.7,22.3,30.15,North,0,0.0,0.0,87,0.00,,,0.00,WUHU21636XXSP,2013-01-16 04:51:00,
2013-01-15 22:56:00,25.5,22.1,30.15,North,0,0.0,0.0,87,0.00,,,0.00,WUHU21636XXSP,2013-01-16 04:56:00,
2013-01-15 23:00:00,25.3,21.9,30.15,North,0,0.0,0.0,88,0.00,,,0.00,WUHU21636XXSP,2013-01-16 05:00:00,
2013-01-15 23:01:00,25.3,21.9,30.15,North,0,0.0,0.0,88,0.00,,,0.00,WUHU21636XXSP,2013-01-16 05:01:00,
2013-01-15 23:02:00,25.3,21.9,30.15,North,0,0.0,0.0,88,0.00,,,0.00,WUHU21636XXSP,2013-01-16 05:02:00,
2013-01-15 23:07:00,24.6,21.2,30.14,North,0,0.0,0.0,87,0.00,,,0.00,WUHU21636XXSP,2013-01-16 05:07:00,
2013-01-15 23:12:00,24.4,21.0,30.14,North,0,0.0,0.0,87,0.00,,,0.00,WUHU21636XXSP,2013-01-16 05:12:00,
2013-01-15 23:17:00,23.7,20.3,30.14,North,0,0.0,0.0,87,0.00,,,0.00,WUHU21636XXSP,2013-01-16 05:17:00,
2013-01-15 23:22:00,23.4,20.3,30.14,North,0,0.0,0.0,88,0.00,,,0.00,WUHU21636XXSP,2013-01-16 05:22:00,
2013-01-15 23:27:00,23.2,20.1,30.14,North,0,0.0,0.0,88,0.00,,,0.00,WUHU21636XXSP,2013-01-16 05:27:00,
2013-01-15 23:32:00,23.4,20.5,30.14,North,0,0.0,0.0,89,0.00,,,0.00,WUHU21636XXSP,2013-01-16 05:32:00,
2013-01-15 23:37:00,23.7,20.8,30.14,North,0,0.0,0.0,89,0.00,,,0.00,WUHU21636XXSP,2013-01-16 05:37:00,
2013-01-15 23:42:00,23.7,20.8,30.14,North,0,0.0,0.0,89,0.00,,,0.00,WUHU21636XXSP,2013-01-16 05:42:00,
2013-01-15 23:47:00,24.1,21.6,30.14,North,0,0.0,0.0,90,0.00,,,0.00,WUHU21636XXSP,2013-01-16 05:47:00,
2013-01-15 23:52:00,24.4,21.9,30.14,North,0,0.0,0.0,90,0.00,,,0.00,WUHU21636XXSP,2013-01-16 05:52:00,
2013-01-15 23:57:00,24.6,22.1,30.14,North,0,0.0,0.0,90,0.00,,,0.00,WUHU21636XXSP,2013-01-16 05:57:00,